Terminal Aerodrome Forecast
Issued by NWS Charleston, WV

Current Version | Previous Version | Graphics & Text | Print | Product List | Glossary On
Versions: 1 2 3 4 5 6 7 8 9 10 11 12 13 14 15 16 17 18 19 20 21 22 23 24
421
FTUS41 KRLX 211251 AAA
TAFBKW
TAF AMD
KBKW 211251Z 2113/2212 15011G20KT P6SM VCSH SCT015 OVC050
     FM211400 15012G20KT 5SM SHRA BKN018 OVC035
     FM211600 16008G18KT 3SM SHRA OVC015=

USA.gov is the U.S. government's official web portal to all federal, state and local government web resources and services.